createdAt,value
2023-04-18T00:00:27.794Z,84.51
2023-04-18T00:00:59.412Z,84.91
2023-04-18T00:01:31.027Z,84.77
2023-04-18T00:02:02.910Z,84.72
2023-04-18T00:02:36.759Z,84.75
2023-04-18T00:03:09.810Z,84.84
2023-04-18T00:03:41.738Z,84.94
2023-04-18T00:04:14.130Z,84.75
2023-04-18T00:04:46.413Z,84.82
2023-04-18T00:05:18.372Z,84.94
2023-04-18T00:05:50.100Z,85.20
2023-04-18T00:06:22.288Z,84.88
2023-04-18T00:06:53.895Z,85.00
2023-04-18T00:07:25.560Z,85.23
2023-04-18T00:07:57.189Z,85.24
2023-04-18T00:08:28.979Z,85.25
2023-04-18T00:09:00.630Z,85.03
2023-04-18T00:09:32.353Z,84.84
2023-04-18T00:10:07.554Z,84.78
2023-04-18T00:10:39.141Z,84.72
2023-04-18T00:11:10.910Z,84.75
2023-04-18T00:11:42.595Z,84.71
2023-04-18T00:12:14.217Z,84.65
2023-04-18T00:12:45.859Z,84.69
2023-04-18T00:13:18.592Z,84.69
2023-04-18T00:13:50.214Z,84.67
2023-04-18T00:14:23.158Z,84.67
2023-04-18T00:14:54.776Z,84.78
2023-04-18T00:15:26.581Z,84.99
2023-04-18T00:15:58.181Z,85.03
2023-04-18T00:16:29.806Z,84.90
2023-04-18T00:17:04.582Z,84.90
2023-04-18T00:17:38.674Z,84.96
2023-04-18T00:18:10.601Z,85.01
2023-04-18T00:18:42.249Z,85.26
2023-04-18T00:19:14.341Z,85.31
2023-04-18T00:19:46.343Z,85.64
2023-04-18T00:20:17.999Z,85.66
2023-04-18T00:20:49.621Z,85.40
2023-04-18T00:21:22.648Z,85.35
2023-04-18T00:21:54.584Z,85.28
2023-04-18T00:22:26.188Z,85.35
2023-04-18T00:22:58.020Z,85.35
2023-04-18T00:23:30.276Z,85.33
2023-04-18T00:24:02.111Z,85.40
2023-04-18T00:24:33.850Z,85.52
2023-04-18T00:25:05.883Z,85.55
2023-04-18T00:25:37.492Z,85.66
2023-04-18T00:26:09.217Z,85.78
2023-04-18T00:26:40.937Z,85.77
2023-04-18T00:27:12.551Z,85.69
2023-04-18T00:27:44.221Z,85.83
2023-04-18T00:28:15.911Z,85.95
2023-04-18T00:28:47.669Z,85.99
2023-04-18T00:29:19.356Z,86.30
2023-04-18T00:29:51.051Z,85.99
2023-04-18T00:30:22.704Z,86.00
2023-04-18T00:30:54.444Z,86.30
2023-04-18T00:31:26.222Z,86.14
2023-04-18T00:31:58.355Z,86.08
2023-04-18T00:32:30.012Z,86.04
2023-04-18T00:33:01.855Z,85.87
2023-04-18T00:33:34.529Z,85.80
2023-04-18T00:34:06.712Z,85.84
2023-04-18T00:34:38.889Z,85.98
2023-04-18T00:35:10.587Z,85.96
2023-04-18T00:35:42.231Z,86.14
2023-04-18T00:36:13.881Z,86.19
2023-04-18T00:36:45.581Z,86.32
2023-04-18T00:37:17.165Z,86.61
2023-04-18T00:37:48.786Z,86.77
2023-04-18T00:38:20.410Z,87.00
2023-04-18T00:38:52.054Z,87.02
2023-04-18T00:39:23.702Z,87.06
2023-04-18T00:39:55.346Z,87.23
2023-04-18T00:40:27.004Z,87.74
2023-04-18T00:40:58.661Z,88.40
2023-04-18T00:41:30.336Z,88.47
2023-04-18T00:42:03.786Z,88.84
2023-04-18T00:42:35.426Z,88.97
2023-04-18T00:43:08.477Z,88.34
2023-04-18T00:43:40.092Z,88.74
2023-04-18T00:44:11.877Z,88.63
2023-04-18T00:44:43.648Z,88.33
2023-04-18T00:45:15.329Z,88.61
2023-04-18T00:45:46.914Z,88.40
2023-04-18T00:46:18.601Z,88.38
2023-04-18T00:46:50.264Z,88.39
2023-04-18T00:47:21.950Z,88.21
2023-04-18T00:47:55.872Z,87.98
2023-04-18T00:48:27.830Z,88.22
2023-04-18T00:48:59.526Z,88.63
2023-04-18T00:49:31.234Z,88.82
2023-04-18T00:50:03.503Z,88.89
2023-04-18T00:50:37.256Z,88.18
2023-04-18T00:51:09.591Z,88.20
2023-04-18T00:51:41.586Z,88.23
2023-04-18T00:52:13.419Z,88.32
2023-04-18T00:52:45.982Z,88.15
2023-04-18T00:53:17.969Z,88.47
2023-04-18T00:53:49.580Z,88.52
2023-04-18T00:54:22.401Z,88.56
2023-04-18T00:54:55.500Z,88.31
2023-04-18T00:55:27.255Z,88.04
2023-04-18T00:55:58.912Z,88.33
2023-04-18T00:56:30.750Z,88.59
2023-04-18T00:57:02.685Z,88.38
2023-04-18T00:57:34.732Z,88.55
2023-04-18T00:58:06.450Z,88.55
2023-04-18T00:58:40.501Z,88.34
2023-04-18T00:59:13.368Z,88.25
2023-04-18T00:59:46.784Z,88.00
2023-04-18T01:00:18.688Z,87.47
2023-04-18T01:00:50.368Z,87.49
2023-04-18T01:01:22.217Z,87.87
2023-04-18T01:01:54.059Z,88.30
2023-04-18T01:02:26.518Z,88.15
2023-04-18T01:02:59.491Z,87.94
2023-04-18T01:03:31.336Z,88.08
2023-04-18T01:04:03.176Z,88.28
2023-04-18T01:04:34.953Z,88.11
2023-04-18T01:05:08.054Z,88.47
2023-04-18T01:05:39.814Z,88.44
2023-04-18T01:06:11.527Z,88.42
2023-04-18T01:06:44.201Z,88.66
2023-04-18T01:07:15.854Z,88.73
2023-04-18T01:07:47.602Z,88.23
2023-04-18T01:08:20.310Z,88.59
2023-04-18T01:08:51.920Z,88.40
2023-04-18T01:09:24.876Z,88.04
2023-04-18T01:09:57.374Z,88.18
2023-04-18T01:10:29.973Z,88.11
2023-04-18T01:11:02.270Z,87.80
2023-04-18T01:11:33.997Z,87.74
2023-04-18T01:12:06.239Z,87.60
2023-04-18T01:12:38.017Z,87.82
2023-04-18T01:13:13.276Z,87.73
2023-04-18T01:14:05.181Z,87.75
2023-04-18T01:14:41.035Z,87.66
2023-04-18T01:15:12.637Z,88.08
2023-04-18T01:15:46.259Z,87.98
2023-04-18T01:16:18.244Z,86.98
2023-04-18T01:16:49.909Z,87.04
2023-04-18T01:17:22.642Z,87.20
2023-04-18T01:17:55.473Z,87.58
2023-04-18T01:18:27.412Z,87.26
2023-04-18T01:19:00.092Z,87.29
2023-04-18T01:19:31.812Z,87.62
2023-04-18T01:20:06.317Z,87.79
2023-04-18T01:20:45.904Z,86.19
2023-04-18T01:21:18.217Z,86.13
2023-04-18T01:21:49.928Z,86.24
2023-04-18T01:22:21.564Z,86.96
2023-04-18T01:22:53.576Z,87.34
2023-04-18T01:23:25.914Z,87.30
2023-04-18T01:24:06.624Z,87.10
2023-04-18T01:24:38.219Z,86.84
2023-04-18T01:25:10.665Z,86.88
2023-04-18T01:25:42.636Z,86.85
2023-04-18T01:26:14.297Z,87.43
2023-04-18T01:26:49.570Z,87.22
2023-04-18T01:27:21.310Z,86.66
2023-04-18T01:27:54.341Z,86.22
2023-04-18T01:28:27.835Z,86.20
2023-04-18T01:28:59.466Z,86.04
2023-04-18T01:29:31.053Z,86.05
2023-04-18T01:30:02.706Z,85.94
2023-04-18T01:30:35.168Z,85.99
2023-04-18T01:31:06.757Z,85.96
2023-04-18T01:31:39.696Z,86.05
2023-04-18T01:32:11.480Z,85.69
2023-04-18T01:32:44.643Z,85.61
2023-04-18T01:33:16.424Z,85.65
2023-04-18T01:33:48.064Z,85.46
2023-04-18T01:34:19.866Z,85.62
2023-04-18T01:34:51.461Z,85.69
2023-04-18T01:35:23.065Z,85.77
2023-04-18T01:35:54.674Z,85.46
2023-04-18T01:36:27.231Z,85.61
2023-04-18T01:36:59.378Z,85.38
2023-04-18T01:37:31.794Z,85.31
2023-04-18T01:38:03.619Z,85.29
2023-04-18T01:38:35.316Z,85.21
2023-04-18T01:39:07.284Z,85.16
2023-04-18T01:39:38.888Z,85.27
2023-04-18T01:40:11.258Z,85.26
2023-04-18T01:40:43.008Z,85.24
2023-04-18T01:41:14.633Z,85.11
2023-04-18T01:41:46.314Z,85.09
2023-04-18T01:42:17.939Z,85.27
2023-04-18T01:42:49.561Z,85.23
2023-04-18T01:43:21.161Z,85.18
2023-04-18T01:43:52.761Z,85.29
2023-04-18T01:44:24.342Z,85.09
2023-04-18T01:44:55.923Z,84.96
2023-04-18T01:45:27.596Z,85.02
2023-04-18T01:45:59.215Z,85.07
2023-04-18T01:46:31.452Z,85.09
2023-04-18T01:47:03.314Z,85.27
2023-04-18T01:47:35.072Z,85.15
2023-04-18T01:48:06.787Z,85.10
2023-04-18T01:48:38.358Z,85.17
2023-04-18T01:49:10.650Z,85.16
2023-04-18T01:49:46.751Z,85.28
2023-04-18T01:50:18.442Z,85.27
2023-04-18T01:50:50.140Z,85.17
2023-04-18T01:51:21.781Z,85.28
2023-04-18T01:51:53.399Z,85.27
2023-04-18T01:52:24.961Z,85.17
2023-04-18T01:52:56.565Z,85.28
2023-04-18T01:53:28.329Z,85.24
2023-04-18T01:53:59.951Z,85.03
2023-04-18T01:54:31.579Z,85.03
2023-04-18T01:55:04.036Z,85.17
2023-04-18T01:55:35.943Z,85.15
2023-04-18T01:56:07.695Z,84.97
2023-04-18T01:56:39.276Z,85.27
2023-04-18T01:57:10.929Z,84.95
2023-04-18T01:57:42.545Z,84.98
2023-04-18T01:58:15.728Z,85.00
2023-04-18T01:58:47.324Z,84.96
2023-04-18T01:59:18.913Z,84.91
2023-04-18T01:59:50.540Z,85.01
2023-04-18T02:00:22.253Z,85.12
2023-04-18T02:00:55.082Z,85.01
2023-04-18T02:01:27.008Z,85.03
2023-04-18T02:01:59.419Z,85.06
2023-04-18T02:02:31.214Z,84.86
2023-04-18T02:03:03.127Z,84.97
2023-04-18T02:03:35.082Z,85.12
2023-04-18T02:04:06.934Z,85.26
2023-04-18T02:04:38.650Z,85.27
2023-04-18T02:05:10.253Z,85.25
2023-04-18T02:05:41.825Z,85.16
2023-04-18T02:06:13.455Z,85.08
2023-04-18T02:06:45.149Z,85.14
2023-04-18T02:07:16.820Z,85.18
2023-04-18T02:07:50.248Z,85.23
2023-04-18T02:08:22.250Z,85.51
2023-04-18T02:08:53.857Z,85.40
2023-04-18T02:09:25.519Z,85.71
2023-04-18T02:09:57.074Z,86.43
2023-04-18T02:10:28.702Z,86.27
2023-04-18T02:11:01.430Z,86.28
2023-04-18T02:11:33.245Z,86.30
2023-04-18T02:12:05.024Z,86.43
2023-04-18T02:12:36.625Z,86.95
2023-04-18T02:13:08.414Z,87.70
2023-04-18T02:13:40.075Z,87.39
2023-04-18T02:14:12.044Z,87.51
2023-04-18T02:14:43.847Z,87.24
2023-04-18T02:15:15.634Z,87.67
2023-04-18T02:15:47.267Z,87.53
2023-04-18T02:16:18.895Z,87.85
2023-04-18T02:16:51.021Z,88.06
2023-04-18T02:17:23.737Z,88.11
2023-04-18T02:17:55.670Z,87.79
2023-04-18T02:18:27.854Z,87.43
2023-04-18T02:18:59.448Z,87.80
2023-04-18T02:19:31.110Z,88.26
2023-04-18T02:20:02.777Z,88.49
2023-04-18T02:20:34.965Z,88.89
2023-04-18T02:21:07.263Z,88.45
2023-04-18T02:21:38.963Z,88.25
2023-04-18T02:22:10.641Z,88.94
2023-04-18T02:22:43.366Z,89.22
2023-04-18T02:23:15.038Z,89.48
2023-04-18T02:23:46.715Z,89.36
2023-04-18T02:24:18.484Z,88.96
2023-04-18T02:24:50.082Z,89.55
2023-04-18T02:25:24.240Z,89.29
2023-04-18T02:25:55.923Z,89.30
2023-04-18T02:26:27.571Z,88.46
2023-04-18T02:26:59.259Z,88.06
2023-04-18T02:27:30.873Z,88.41
2023-04-18T02:28:02.514Z,88.59
2023-04-18T02:28:34.273Z,89.06
2023-04-18T02:29:05.839Z,88.56
2023-04-18T02:29:37.485Z,88.63
2023-04-18T02:30:09.551Z,88.40
2023-04-18T02:30:41.257Z,87.98
2023-04-18T02:31:15.273Z,88.49
2023-04-18T02:31:47.030Z,88.40
2023-04-18T02:32:18.708Z,88.19
2023-04-18T02:32:57.019Z,88.25
2023-04-18T02:33:29.280Z,88.12
2023-04-18T02:34:00.902Z,87.52
2023-04-18T02:34:33.922Z,87.66
2023-04-18T02:35:05.944Z,87.66
2023-04-18T02:35:38.768Z,87.60
2023-04-18T02:36:10.742Z,88.14
2023-04-18T02:36:43.072Z,87.97
2023-04-18T02:37:14.743Z,88.18
2023-04-18T02:37:46.637Z,87.92
2023-04-18T02:38:18.276Z,87.52
2023-04-18T02:38:49.935Z,87.82
2023-04-18T02:39:21.579Z,88.13
2023-04-18T02:39:53.519Z,88.34
2023-04-18T02:40:25.092Z,88.54
2023-04-18T02:40:56.663Z,88.94
2023-04-18T02:41:28.332Z,88.64
2023-04-18T02:41:59.981Z,88.45
2023-04-18T02:42:31.636Z,88.60
2023-04-18T02:43:03.285Z,88.54
2023-04-18T02:43:34.927Z,88.91
2023-04-18T02:44:09.389Z,89.27
2023-04-18T02:44:40.996Z,89.25
2023-04-18T02:45:12.623Z,88.95
2023-04-18T02:45:44.282Z,87.48
2023-04-18T02:46:16.323Z,86.93
2023-04-18T02:46:48.040Z,86.70
2023-04-18T02:47:19.712Z,86.51
2023-04-18T02:47:55.411Z,87.19
2023-04-18T02:48:27.969Z,88.13
2023-04-18T02:49:00.031Z,88.74
2023-04-18T02:49:32.401Z,88.74
2023-04-18T02:50:04.403Z,88.62
2023-04-18T02:50:36.007Z,87.65
2023-04-18T02:51:08.953Z,86.53
2023-04-18T02:51:40.674Z,86.32
2023-04-18T02:52:12.262Z,86.10
2023-04-18T02:52:44.013Z,86.09
2023-04-18T02:53:16.838Z,86.05
2023-04-18T02:53:48.560Z,86.72
2023-04-18T02:54:20.147Z,86.96
2023-04-18T02:54:52.108Z,86.98
2023-04-18T02:55:24.836Z,87.52
2023-04-18T02:55:56.564Z,87.34
2023-04-18T02:56:28.184Z,87.46
2023-04-18T02:56:59.985Z,87.01
2023-04-18T02:57:31.572Z,87.58
2023-04-18T02:58:03.161Z,87.46
2023-04-18T02:58:36.446Z,87.17
2023-04-18T02:59:08.053Z,87.28
2023-04-18T02:59:39.633Z,87.70
2023-04-18T03:00:12.022Z,87.11
2023-04-18T03:00:43.637Z,87.95
2023-04-18T03:01:18.402Z,87.69
2023-04-18T03:01:50.098Z,86.79
2023-04-18T03:02:21.890Z,86.92
2023-04-18T03:02:53.730Z,87.60
2023-04-18T03:03:26.047Z,86.86
2023-04-18T03:03:57.733Z,86.01
2023-04-18T03:04:29.390Z,86.10
2023-04-18T03:05:01.053Z,86.70
2023-04-18T03:05:32.666Z,86.30
2023-04-18T03:06:04.500Z,86.89
2023-04-18T03:06:36.266Z,87.24
2023-04-18T03:07:07.964Z,87.31
2023-04-18T03:07:39.617Z,87.24
2023-04-18T03:08:11.251Z,87.42
2023-04-18T03:08:42.834Z,87.17
2023-04-18T03:09:15.048Z,87.10
2023-04-18T03:09:46.743Z,87.17
2023-04-18T03:10:18.419Z,87.25
2023-04-18T03:10:50.038Z,87.67
2023-04-18T03:11:22.416Z,87.63
2023-04-18T03:11:54.059Z,87.38
2023-04-18T03:12:25.770Z,87.37
2023-04-18T03:12:57.487Z,87.45
2023-04-18T03:13:29.067Z,87.31
2023-04-18T03:14:00.733Z,85.98
2023-04-18T03:14:32.360Z,86.12
2023-04-18T03:15:04.264Z,86.29
2023-04-18T03:15:35.947Z,86.92
2023-04-18T03:16:07.757Z,85.68
2023-04-18T03:16:39.460Z,86.02
2023-04-18T03:17:11.384Z,85.79
2023-04-18T03:17:43.276Z,85.89
2023-04-18T03:18:14.880Z,86.24
2023-04-18T03:18:46.488Z,87.39
2023-04-18T03:19:18.063Z,86.66
2023-04-18T03:19:49.897Z,86.16
2023-04-18T03:20:21.582Z,86.39
2023-04-18T03:20:53.155Z,86.14
2023-04-18T03:21:24.803Z,86.19
2023-04-18T03:21:56.442Z,85.76
2023-04-18T03:22:28.094Z,85.63
2023-04-18T03:22:59.723Z,86.02
2023-04-18T03:23:31.364Z,86.07
2023-04-18T03:24:03.044Z,86.14
2023-04-18T03:24:34.672Z,85.99
2023-04-18T03:25:07.079Z,86.17
2023-04-18T03:25:38.684Z,86.29
2023-04-18T03:26:13.894Z,86.63
2023-04-18T03:26:46.120Z,86.99
2023-04-18T03:27:17.867Z,87.59
2023-04-18T03:27:49.505Z,87.88
2023-04-18T03:28:21.159Z,88.00
2023-04-18T03:28:52.896Z,88.65
2023-04-18T03:29:24.570Z,88.34
2023-04-18T03:29:56.225Z,88.90
2023-04-18T03:30:27.942Z,89.12
2023-04-18T03:30:59.688Z,89.31
2023-04-18T03:31:32.182Z,89.40
2023-04-18T03:32:03.962Z,90.02
2023-04-18T03:32:36.473Z,90.06
2023-04-18T03:33:08.737Z,89.63
2023-04-18T03:33:42.422Z,89.62
2023-04-18T03:34:14.211Z,89.68
2023-04-18T03:34:45.896Z,89.72
2023-04-18T03:35:17.553Z,90.25
2023-04-18T03:35:49.161Z,90.08
2023-04-18T03:36:25.271Z,90.49
2023-04-18T03:36:56.901Z,90.85
2023-04-18T03:37:28.800Z,90.70
2023-04-18T03:38:00.476Z,91.59
2023-04-18T03:38:32.182Z,92.51
2023-04-18T03:39:04.014Z,92.55
2023-04-18T03:39:35.631Z,92.61
2023-04-18T03:40:08.176Z,93.20
2023-04-18T03:40:39.887Z,91.67
2023-04-18T03:41:11.516Z,92.64
2023-04-18T03:41:43.134Z,93.13
2023-04-18T03:42:14.749Z,93.24
2023-04-18T03:42:46.376Z,93.44
2023-04-18T03:43:20.601Z,93.60
2023-04-18T03:43:52.300Z,93.37
2023-04-18T03:44:23.913Z,93.26
2023-04-18T03:44:55.497Z,93.73
2023-04-18T03:45:27.270Z,92.02
2023-04-18T03:45:58.974Z,91.14
2023-04-18T03:46:30.743Z,92.45
2023-04-18T03:47:02.400Z,93.16
2023-04-18T03:47:34.014Z,92.48
2023-04-18T03:48:06.239Z,91.92
2023-04-18T03:48:37.863Z,92.35
2023-04-18T03:49:09.551Z,92.41
2023-04-18T03:49:41.499Z,93.35
2023-04-18T03:50:13.133Z,93.83
2023-04-18T03:50:44.949Z,93.65
2023-04-18T03:51:16.891Z,93.38
2023-04-18T03:51:48.598Z,94.06
2023-04-18T03:52:20.364Z,94.46
2023-04-18T03:52:52.567Z,93.35
2023-04-18T03:53:24.128Z,92.81
2023-04-18T03:53:55.835Z,93.20
2023-04-18T03:54:27.593Z,93.74
2023-04-18T03:54:59.222Z,93.06
2023-04-18T03:55:30.940Z,93.00
2023-04-18T03:56:02.554Z,92.76
2023-04-18T03:56:34.244Z,92.49
2023-04-18T03:57:05.945Z,92.47
2023-04-18T03:57:37.558Z,92.57
2023-04-18T03:58:09.662Z,92.74
2023-04-18T03:58:41.333Z,92.89
2023-04-18T03:59:12.925Z,93.45
2023-04-18T03:59:46.115Z,93.92
2023-04-18T04:00:19.110Z,94.37
2023-04-18T04:00:51.943Z,94.39
2023-04-18T04:01:23.609Z,93.59
2023-04-18T04:01:55.972Z,93.68
2023-04-18T04:02:27.803Z,93.45
2023-04-18T04:02:59.664Z,93.57
2023-04-18T04:03:31.612Z,93.28
2023-04-18T04:04:04.371Z,93.13
2023-04-18T04:04:36.233Z,93.25
2023-04-18T04:05:08.260Z,92.87
2023-04-18T04:05:39.944Z,92.83
2023-04-18T04:06:11.642Z,93.20
2023-04-18T04:06:43.436Z,93.04
2023-04-18T04:07:15.055Z,93.02
2023-04-18T04:07:46.822Z,92.98
2023-04-18T04:08:18.402Z,93.09
2023-04-18T04:08:50.090Z,93.28
2023-04-18T04:09:21.699Z,93.12
2023-04-18T04:09:53.280Z,92.84
2023-04-18T04:10:24.971Z,92.88
2023-04-18T04:10:56.617Z,92.77
2023-04-18T04:11:28.274Z,92.81
2023-04-18T04:11:59.875Z,92.84
2023-04-18T04:12:31.514Z,92.90
2023-04-18T04:13:03.125Z,92.88
2023-04-18T04:13:36.077Z,92.83
2023-04-18T04:14:07.767Z,92.90
2023-04-18T04:14:39.371Z,92.74
2023-04-18T04:15:11.634Z,92.84
2023-04-18T04:15:43.291Z,92.92
2023-04-18T04:16:15.149Z,92.80
2023-04-18T04:16:47.039Z,92.57
2023-04-18T04:17:18.798Z,93.16
2023-04-18T04:17:51.154Z,93.25
2023-04-18T04:18:29.850Z,92.91
2023-04-18T04:19:01.461Z,92.98
2023-04-18T04:19:33.095Z,93.04
2023-04-18T04:20:05.640Z,92.91
2023-04-18T04:20:37.283Z,92.94
2023-04-18T04:21:08.955Z,93.04
2023-04-18T04:21:40.564Z,92.29
2023-04-18T04:22:12.215Z,92.36
2023-04-18T04:22:43.842Z,92.52
2023-04-18T04:23:15.421Z,93.04
2023-04-18T04:23:48.153Z,92.93
2023-04-18T04:24:20.539Z,92.79
2023-04-18T04:24:52.188Z,92.41
2023-04-18T04:25:28.533Z,92.37
2023-04-18T04:26:04.271Z,92.28
2023-04-18T04:26:36.075Z,92.61
2023-04-18T04:27:08.183Z,92.48
2023-04-18T04:27:39.861Z,92.45
2023-04-18T04:28:11.755Z,92.20
2023-04-18T04:28:46.505Z,92.21
2023-04-18T04:29:19.096Z,91.92
2023-04-18T04:29:52.349Z,91.10
2023-04-18T04:30:24.002Z,90.84
2023-04-18T04:30:55.737Z,90.90
2023-04-18T04:31:27.339Z,91.34
2023-04-18T04:31:59.762Z,91.55
2023-04-18T04:32:31.493Z,91.36
2023-04-18T04:33:03.473Z,91.15
2023-04-18T04:33:36.008Z,91.07
2023-04-18T04:34:08.979Z,91.30
2023-04-18T04:34:41.819Z,91.51
2023-04-18T04:35:13.943Z,90.14
2023-04-18T04:35:49.835Z,90.11
2023-04-18T04:36:23.164Z,90.10
2023-04-18T04:36:55.042Z,90.06
2023-04-18T04:37:27.787Z,90.11
2023-04-18T04:38:01.706Z,90.33
2023-04-18T04:38:33.589Z,90.73
2023-04-18T04:39:05.394Z,91.05
2023-04-18T04:39:37.055Z,90.96
2023-04-18T04:40:09.305Z,91.26
2023-04-18T04:40:41.850Z,91.20
2023-04-18T04:41:13.518Z,90.89
2023-04-18T04:41:47.238Z,90.89
2023-04-18T04:42:19.788Z,90.95
2023-04-18T04:42:54.123Z,91.03
2023-04-18T04:43:28.781Z,90.69
2023-04-18T04:44:01.950Z,90.85
2023-04-18T04:44:35.634Z,91.20
2023-04-18T04:45:09.484Z,91.23
2023-04-18T04:45:41.965Z,91.19
2023-04-18T04:46:13.939Z,90.73
2023-04-18T04:46:45.602Z,90.55
2023-04-18T04:47:17.251Z,90.63
2023-04-18T04:47:48.992Z,91.31
2023-04-18T04:48:22.258Z,91.21
2023-04-18T04:48:54.472Z,90.87
2023-04-18T04:49:26.105Z,90.65
2023-04-18T04:49:57.867Z,90.61
2023-04-18T04:50:29.474Z,89.90
2023-04-18T04:51:01.516Z,90.16
2023-04-18T04:51:33.246Z,90.64
2023-04-18T04:52:04.864Z,91.22
2023-04-18T04:52:36.611Z,90.60
2023-04-18T04:53:08.886Z,90.45
2023-04-18T04:53:40.646Z,90.71
2023-04-18T04:54:12.606Z,90.92
2023-04-18T04:54:45.924Z,91.94
2023-04-18T04:55:19.010Z,91.75
2023-04-18T04:55:51.784Z,91.93
2023-04-18T04:56:23.835Z,91.16
2023-04-18T04:56:55.470Z,90.79
2023-04-18T04:57:27.046Z,90.78
2023-04-18T04:57:58.894Z,90.17
2023-04-18T04:58:31.103Z,89.73
2023-04-18T04:59:02.994Z,89.78
2023-04-18T04:59:35.620Z,90.28
2023-04-18T05:00:09.048Z,90.81
2023-04-18T05:00:40.666Z,90.52
2023-04-18T05:01:13.010Z,90.91
2023-04-18T05:01:44.791Z,90.87
2023-04-18T05:02:16.859Z,90.74
2023-04-18T05:02:49.210Z,91.12
2023-04-18T05:03:21.280Z,91.35
2023-04-18T05:03:53.053Z,91.30
2023-04-18T05:04:25.517Z,91.31
2023-04-18T05:04:57.383Z,91.28
2023-04-18T05:05:29.192Z,91.04
2023-04-18T05:06:00.819Z,90.78
2023-04-18T05:06:32.576Z,90.75
2023-04-18T05:07:04.253Z,90.64
2023-04-18T05:07:35.848Z,90.86
2023-04-18T05:08:07.570Z,90.78
2023-04-18T05:08:39.203Z,90.94
2023-04-18T05:09:10.819Z,90.85
2023-04-18T05:09:42.376Z,90.55
2023-04-18T05:10:14.130Z,90.45
2023-04-18T05:10:46.083Z,90.10
2023-04-18T05:11:18.137Z,90.44
2023-04-18T05:11:49.776Z,90.31
2023-04-18T05:12:21.625Z,90.53
2023-04-18T05:12:53.262Z,90.69
2023-04-18T05:13:24.886Z,90.39
2023-04-18T05:13:56.459Z,90.52
2023-04-18T05:14:28.127Z,90.48
2023-04-18T05:14:59.723Z,90.68
2023-04-18T05:15:31.828Z,90.68
2023-04-18T05:16:03.734Z,90.91
2023-04-18T05:16:35.899Z,89.90
2023-04-18T05:17:07.905Z,90.20
2023-04-18T05:17:39.594Z,90.39
2023-04-18T05:18:11.473Z,89.90
2023-04-18T05:18:43.355Z,89.73
2023-04-18T05:19:15.009Z,89.88
2023-04-18T05:19:46.614Z,89.67
2023-04-18T05:20:18.287Z,88.90
2023-04-18T05:20:49.941Z,88.79
2023-04-18T05:21:21.554Z,88.86
2023-04-18T05:21:53.198Z,89.74
2023-04-18T05:22:24.850Z,89.89
2023-04-18T05:22:56.416Z,89.94
2023-04-18T05:23:27.986Z,89.87
2023-04-18T05:23:59.584Z,89.90
2023-04-18T05:24:32.596Z,89.61
2023-04-18T05:25:04.805Z,89.68
2023-04-18T05:25:36.976Z,89.91
2023-04-18T05:26:08.625Z,90.06
2023-04-18T05:26:40.399Z,89.98
2023-04-18T05:27:12.155Z,89.65
2023-04-18T05:27:43.782Z,88.61
2023-04-18T05:28:15.760Z,89.29
2023-04-18T05:28:47.639Z,89.71
2023-04-18T05:29:19.270Z,89.05
2023-04-18T05:29:51.047Z,88.60
2023-04-18T05:30:22.716Z,88.85
2023-04-18T05:31:01.168Z,88.88
2023-04-18T05:31:32.966Z,89.43
2023-04-18T05:32:04.825Z,89.65
2023-04-18T05:32:36.679Z,88.09
2023-04-18T05:33:08.414Z,87.86
2023-04-18T05:33:40.091Z,87.88
2023-04-18T05:34:11.997Z,88.03
2023-04-18T05:34:44.029Z,89.42
2023-04-18T05:35:15.774Z,90.13
2023-04-18T05:35:47.474Z,89.50
2023-04-18T05:36:19.129Z,89.61
2023-04-18T05:36:50.781Z,89.37
2023-04-18T05:37:22.760Z,89.21
2023-04-18T05:37:54.413Z,89.77
2023-04-18T05:38:26.164Z,90.35
2023-04-18T05:38:57.797Z,89.81
2023-04-18T05:39:29.488Z,89.83
2023-04-18T05:40:01.277Z,89.88
2023-04-18T05:40:32.927Z,91.42
2023-04-18T05:41:04.660Z,88.86
2023-04-18T05:41:36.263Z,88.79
2023-04-18T05:42:08.078Z,89.15
2023-04-18T05:42:39.795Z,90.00
2023-04-18T05:43:11.526Z,89.98
2023-04-18T05:43:46.372Z,90.52
2023-04-18T05:44:26.116Z,90.43
2023-04-18T05:44:57.768Z,90.63
2023-04-18T05:45:29.389Z,90.61
2023-04-18T05:46:00.990Z,90.58
2023-04-18T05:46:33.221Z,90.60
2023-04-18T05:47:07.689Z,91.47
2023-04-18T05:47:39.354Z,91.92
2023-04-18T05:48:11.309Z,91.90
2023-04-18T05:48:43.004Z,91.38
2023-04-18T05:49:14.765Z,92.79
2023-04-18T05:49:46.353Z,92.96
2023-04-18T05:50:17.985Z,92.58
2023-04-18T05:50:49.627Z,92.21
2023-04-18T05:51:21.260Z,92.88
2023-04-18T05:51:53.143Z,93.64
2023-04-18T05:52:26.150Z,93.23
2023-04-18T05:52:59.390Z,92.84
2023-04-18T05:53:31.026Z,93.02
2023-04-18T05:54:02.796Z,93.09
2023-04-18T05:54:34.573Z,93.02
2023-04-18T05:55:06.939Z,93.46
2023-04-18T05:55:40.993Z,93.34
2023-04-18T05:56:12.717Z,93.19
2023-04-18T05:56:44.817Z,93.50
2023-04-18T05:57:16.523Z,93.25
2023-04-18T05:57:48.106Z,93.76
2023-04-18T05:58:19.739Z,93.62
2023-04-18T05:58:51.485Z,93.73
2023-04-18T05:59:23.442Z,93.81
2023-04-18T05:59:55.023Z,94.21
2023-04-18T06:00:27.285Z,94.10
2023-04-18T06:00:58.927Z,94.41
2023-04-18T06:01:30.505Z,94.53
2023-04-18T06:02:02.154Z,94.89
2023-04-18T06:02:34.003Z,94.74
2023-04-18T06:03:07.832Z,94.71
2023-04-18T06:03:41.803Z,94.69
2023-04-18T06:04:14.162Z,95.15
2023-04-18T06:04:46.340Z,94.66
2023-04-18T06:05:18.458Z,94.71
2023-04-18T06:05:50.467Z,94.28
2023-04-18T06:06:22.204Z,94.50
2023-04-18T06:06:53.859Z,94.95
2023-04-18T06:07:25.663Z,95.17
2023-04-18T06:07:57.674Z,95.42
2023-04-18T06:08:29.264Z,95.88
2023-04-18T06:09:01.207Z,95.73
2023-04-18T06:09:32.865Z,95.95
2023-04-18T06:10:09.200Z,95.97
2023-04-18T06:10:41.057Z,96.12
2023-04-18T06:11:15.000Z,96.28
2023-04-18T06:11:46.856Z,96.14
2023-04-18T06:12:18.471Z,95.99
2023-04-18T06:12:50.095Z,95.70
2023-04-18T06:13:21.719Z,95.77
2023-04-18T06:13:55.948Z,95.65
2023-04-18T06:14:28.671Z,95.95
2023-04-18T06:15:00.645Z,96.13
2023-04-18T06:15:32.545Z,96.56
2023-04-18T06:16:05.985Z,96.11
2023-04-18T06:16:38.220Z,95.52
2023-04-18T06:17:12.590Z,95.16
2023-04-18T06:17:44.845Z,95.36
2023-04-18T06:18:16.502Z,96.14
2023-04-18T06:18:48.330Z,96.11
2023-04-18T06:19:19.989Z,95.86
2023-04-18T06:19:51.575Z,95.90
2023-04-18T06:20:24.047Z,96.02
2023-04-18T06:20:55.790Z,95.77
2023-04-18T06:21:27.628Z,96.12
2023-04-18T06:21:59.235Z,96.07
2023-04-18T06:22:31.120Z,96.11
2023-04-18T06:23:02.961Z,96.23
2023-04-18T06:23:34.543Z,96.03
2023-04-18T06:24:06.495Z,96.22
2023-04-18T06:24:38.615Z,96.10
2023-04-18T06:25:10.372Z,96.18
2023-04-18T06:25:42.823Z,96.61
2023-04-18T06:26:14.645Z,96.21
2023-04-18T06:26:46.527Z,96.25
2023-04-18T06:27:30.653Z,96.25
2023-04-18T06:28:03.397Z,95.62
2023-04-18T06:28:35.693Z,95.39
2023-04-18T06:29:07.451Z,95.54
2023-04-18T06:29:39.018Z,95.77
2023-04-18T06:30:11.026Z,95.69
2023-04-18T06:30:42.807Z,95.80
2023-04-18T06:31:14.520Z,95.80
2023-04-18T06:31:48.280Z,95.61
2023-04-18T06:32:20.054Z,95.21
2023-04-18T06:32:51.767Z,95.32
2023-04-18T06:33:23.425Z,95.44
2023-04-18T06:33:54.985Z,94.67
2023-04-18T06:34:26.557Z,94.82
2023-04-18T06:34:58.280Z,94.84
2023-04-18T06:35:31.060Z,94.40
2023-04-18T06:36:02.773Z,94.14
2023-04-18T06:36:34.481Z,93.69
2023-04-18T06:37:06.142Z,93.88
2023-04-18T06:37:37.959Z,94.04
2023-04-18T06:38:12.157Z,93.89
2023-04-18T06:38:43.777Z,93.74
2023-04-18T06:39:15.354Z,93.88
2023-04-18T06:39:47.170Z,93.88
2023-04-18T06:40:18.880Z,93.68
2023-04-18T06:40:50.478Z,93.15
2023-04-18T06:41:22.844Z,92.47
2023-04-18T06:41:54.480Z,93.32
2023-04-18T06:42:26.176Z,93.54
2023-04-18T06:42:57.786Z,93.78
2023-04-18T06:43:29.408Z,93.30
2023-04-18T06:44:04.076Z,93.13
2023-04-18T06:44:36.757Z,92.43
2023-04-18T06:45:10.727Z,91.77
2023-04-18T06:45:42.345Z,91.86
2023-04-18T06:46:14.004Z,92.01
2023-04-18T06:46:46.256Z,91.80
2023-04-18T06:47:18.036Z,91.68
2023-04-18T06:47:51.451Z,91.71
2023-04-18T06:48:23.310Z,92.31
2023-04-18T06:48:54.960Z,91.69
2023-04-18T06:49:26.920Z,91.83
2023-04-18T06:49:58.568Z,91.68
2023-04-18T06:50:30.676Z,91.25
2023-04-18T06:51:02.292Z,91.10
2023-04-18T06:51:34.245Z,90.34
2023-04-18T06:52:06.079Z,89.57
2023-04-18T06:52:40.823Z,89.73
2023-04-18T06:53:12.472Z,89.78
2023-04-18T06:53:45.816Z,89.26
2023-04-18T06:54:17.396Z,89.10